sensor_id;sensor_type;location;lat;lon;timestamp;temperature;humidity
18575;DHT22;9417;16.484;102.872;2023-09-19T00:01:08;24.90;99.90
18575;DHT22;9417;16.484;102.872;2023-09-19T00:03:17;24.90;99.90
18575;DHT22;9417;16.484;102.872;2023-09-19T00:05:24;24.90;99.90
18575;DHT22;9417;16.484;102.872;2023-09-19T00:07:32;24.90;99.90
18575;DHT22;9417;16.484;102.872;2023-09-19T00:09:41;24.90;99.90
18575;DHT22;9417;16.484;102.872;2023-09-19T00:11:50;25.00;99.90
18575;DHT22;9417;16.484;102.872;2023-09-19T00:13:58;25.00;99.90
18575;DHT22;9417;16.484;102.872;2023-09-19T00:16:09;25.00;99.90
18575;DHT22;9417;16.484;102.872;2023-09-19T00:18:18;25.00;99.90
18575;DHT22;9417;16.484;102.872;2023-09-19T00:20:26;25.00;99.90
18575;DHT22;9417;16.484;102.872;2023-09-19T00:22:35;25.00;99.90
18575;DHT22;9417;16.484;102.872;2023-09-19T00:24:46;25.10;99.90
18575;DHT22;9417;16.484;102.872;2023-09-19T00:26:55;25.00;99.90
18575;DHT22;9417;16.484;102.872;2023-09-19T00:29:01;25.00;99.90
18575;DHT22;9417;16.484;102.872;2023-09-19T00:31:13;25.00;99.90
18575;DHT22;9417;16.484;102.872;2023-09-19T00:33:20;25.00;99.90
18575;DHT22;9417;16.484;102.872;2023-09-19T00:35:28;25.10;99.90
18575;DHT22;9417;16.484;102.872;2023-09-19T00:37:35;25.10;99.90
18575;DHT22;9417;16.484;102.872;2023-09-19T00:39:44;25.10;99.90
18575;DHT22;9417;16.484;102.872;2023-09-19T00:41:53;25.10;99.90
18575;DHT22;9417;16.484;102.872;2023-09-19T00:44:00;25.20;99.90
18575;DHT22;9417;16.484;102.872;2023-09-19T00:46:09;25.20;99.90
18575;DHT22;9417;16.484;102.872;2023-09-19T00:48:16;25.20;99.90
18575;DHT22;9417;16.484;102.872;2023-09-19T00:50:28;25.10;99.90
18575;DHT22;9417;16.484;102.872;2023-09-19T00:52:37;25.20;99.90
18575;DHT22;9417;16.484;102.872;2023-09-19T00:54:46;25.20;99.90
18575;DHT22;9417;16.484;102.872;2023-09-19T00:56:55;25.20;99.90
18575;DHT22;9417;16.484;102.872;2023-09-19T00:59:03;25.20;99.90
18575;DHT22;9417;16.484;102.872;2023-09-19T01:01:12;25.20;99.90
18575;DHT22;9417;16.484;102.872;2023-09-19T01:03:20;25.20;99.90
18575;DHT22;9417;16.484;102.872;2023-09-19T01:05:27;25.30;99.90
18575;DHT22;9417;16.484;102.872;2023-09-19T01:07:34;25.30;99.90
18575;DHT22;9417;16.484;102.872;2023-09-19T01:09:42;25.30;99.90
18575;DHT22;9417;16.484;102.872;2023-09-19T01:11:51;25.30;99.90
18575;DHT22;9417;16.484;102.872;2023-09-19T01:14:11;25.30;99.90
18575;DHT22;9417;16.484;102.872;2023-09-19T01:16:32;25.30;99.90
18575;DHT22;9417;16.484;102.872;2023-09-19T01:19:02;25.30;99.90
18575;DHT22;9417;16.484;102.872;2023-09-19T01:21:21;25.20;99.90
18575;DHT22;9417;16.484;102.872;2023-09-19T01:23:42;25.20;99.90
18575;DHT22;9417;16.484;102.872;2023-09-19T01:26:07;25.30;99.90
18575;DHT22;9417;16.484;102.872;2023-09-19T01:28:31;25.30;99.90
18575;DHT22;9417;16.484;102.872;2023-09-19T01:30:47;25.30;99.90
18575;DHT22;9417;16.484;102.872;2023-09-19T01:32:56;25.30;99.90
18575;DHT22;9417;16.484;102.872;2023-09-19T01:35:04;25.40;99.90
18575;DHT22;9417;16.484;102.872;2023-09-19T01:37:12;25.30;99.90
18575;DHT22;9417;16.484;102.872;2023-09-19T01:39:24;25.40;99.90
18575;DHT22;9417;16.484;102.872;2023-09-19T01:41:39;25.30;99.90
18575;DHT22;9417;16.484;102.872;2023-09-19T01:43:50;25.40;99.90
18575;DHT22;9417;16.484;102.872;2023-09-19T01:46:05;25.40;99.90
18575;DHT22;9417;16.484;102.872;2023-09-19T01:48:25;25.30;99.90
18575;DHT22;9417;16.484;102.872;2023-09-19T01:50:41;25.40;99.90
18575;DHT22;9417;16.484;102.872;2023-09-19T01:52:56;25.40;99.90
18575;DHT22;9417;16.484;102.872;2023-09-19T01:55:09;25.40;99.90
18575;DHT22;9417;16.484;102.872;2023-09-19T01:57:22;25.40;99.90
18575;DHT22;9417;16.484;102.872;2023-09-19T01:59:37;25.40;99.90
18575;DHT22;9417;16.484;102.872;2023-09-19T02:01:50;25.40;99.90
18575;DHT22;9417;16.484;102.872;2023-09-19T02:03:59;25.40;99.90
18575;DHT22;9417;16.484;102.872;2023-09-19T02:06:07;25.50;99.90
18575;DHT22;9417;16.484;102.872;2023-09-19T02:08:17;25.50;99.90
18575;DHT22;9417;16.484;102.872;2023-09-19T02:10:26;25.50;99.90
18575;DHT22;9417;16.484;102.872;2023-09-19T02:12:35;25.60;99.90
18575;DHT22;9417;16.484;102.872;2023-09-19T02:14:42;25.60;99.90
18575;DHT22;9417;16.484;102.872;2023-09-19T02:16:51;25.60;99.90
18575;DHT22;9417;16.484;102.872;2023-09-19T02:18:57;25.60;99.90
18575;DHT22;9417;16.484;102.872;2023-09-19T02:21:05;25.60;99.90
18575;DHT22;9417;16.484;102.872;2023-09-19T02:23:14;25.60;99.90
18575;DHT22;9417;16.484;102.872;2023-09-19T02:25:22;25.60;99.90
18575;DHT22;9417;16.484;102.872;2023-09-19T02:27:31;25.60;99.90
18575;DHT22;9417;16.484;102.872;2023-09-19T02:29:39;25.60;99.90
18575;DHT22;9417;16.484;102.872;2023-09-19T02:31:46;25.60;99.90
18575;DHT22;9417;16.484;102.872;2023-09-19T02:33:55;25.60;99.90
18575;DHT22;9417;16.484;102.872;2023-09-19T02:36:02;25.70;99.90
18575;DHT22;9417;16.484;102.872;2023-09-19T02:38:10;25.70;99.90
18575;DHT22;9417;16.484;102.872;2023-09-19T02:40:17;25.60;99.90
18575;DHT22;9417;16.484;102.872;2023-09-19T02:42:25;25.60;99.90
18575;DHT22;9417;16.484;102.872;2023-09-19T02:44:32;25.60;99.90
18575;DHT22;9417;16.484;102.872;2023-09-19T02:46:40;25.60;99.90
18575;DHT22;9417;16.484;102.872;2023-09-19T02:48:47;25.60;99.90
18575;DHT22;9417;16.484;102.872;2023-09-19T02:50:57;25.50;99.90
18575;DHT22;9417;16.484;102.872;2023-09-19T02:53:04;25.50;99.90
18575;DHT22;9417;16.484;102.872;2023-09-19T02:55:12;25.60;99.90
18575;DHT22;9417;16.484;102.872;2023-09-19T02:57:22;25.70;99.90
18575;DHT22;9417;16.484;102.872;2023-09-19T02:59:31;25.80;99.90
18575;DHT22;9417;16.484;102.872;2023-09-19T03:01:43;25.80;99.90
18575;DHT22;9417;16.484;102.872;2023-09-19T03:03:52;25.80;99.90
18575;DHT22;9417;16.484;102.872;2023-09-19T03:06:02;25.90;99.90
18575;DHT22;9417;16.484;102.872;2023-09-19T03:08:09;25.80;99.90
18575;DHT22;9417;16.484;102.872;2023-09-19T03:10:21;25.80;99.90
18575;DHT22;9417;16.484;102.872;2023-09-19T03:12:29;25.90;99.90
18575;DHT22;9417;16.484;102.872;2023-09-19T03:14:38;25.90;99.90
18575;DHT22;9417;16.484;102.872;2023-09-19T03:16:45;25.90;99.90
18575;DHT22;9417;16.484;102.872;2023-09-19T03:18:53;25.90;99.90
18575;DHT22;9417;16.484;102.872;2023-09-19T03:21:02;26.00;99.90
18575;DHT22;9417;16.484;102.872;2023-09-19T03:23:09;25.90;99.90
18575;DHT22;9417;16.484;102.872;2023-09-19T03:25:18;26.00;99.90
18575;DHT22;9417;16.484;102.872;2023-09-19T03:27:27;25.90;99.90
18575;DHT22;9417;16.484;102.872;2023-09-19T03:29:33;25.90;99.90
18575;DHT22;9417;16.484;102.872;2023-09-19T03:31:41;25.90;99.90
18575;DHT22;9417;16.484;102.872;2023-09-19T03:33:49;26.00;99.90
18575;DHT22;9417;16.484;102.872;2023-09-19T03:35:58;25.90;99.90
18575;DHT22;9417;16.484;102.872;2023-09-19T03:38:07;25.90;99.90
18575;DHT22;9417;16.484;102.872;2023-09-19T03:40:15;25.90;99.90
18575;DHT22;9417;16.484;102.872;2023-09-19T03:42:25;26.00;99.90
18575;DHT22;9417;16.484;102.872;2023-09-19T03:44:33;26.00;99.90
18575;DHT22;9417;16.484;102.872;2023-09-19T03:46:40;26.00;99.90
18575;DHT22;9417;16.484;102.872;2023-09-19T03:48:48;26.10;99.90
18575;DHT22;9417;16.484;102.872;2023-09-19T03:50:55;26.00;99.90
18575;DHT22;9417;16.484;102.872;2023-09-19T03:53:02;26.00;99.90
18575;DHT22;9417;16.484;102.872;2023-09-19T03:55:13;26.10;99.90
18575;DHT22;9417;16.484;102.872;2023-09-19T03:57:20;26.10;99.90
18575;DHT22;9417;16.484;102.872;2023-09-19T03:59:27;26.10;99.90
18575;DHT22;9417;16.484;102.872;2023-09-19T04:01:34;26.10;99.90
18575;DHT22;9417;16.484;102.872;2023-09-19T04:03:42;26.10;99.90
18575;DHT22;9417;16.484;102.872;2023-09-19T04:05:56;26.20;99.90
18575;DHT22;9417;16.484;102.872;2023-09-19T04:08:03;26.20;99.90
18575;DHT22;9417;16.484;102.872;2023-09-19T04:10:13;26.20;99.90
18575;DHT22;9417;16.484;102.872;2023-09-19T04:12:20;26.30;99.90
18575;DHT22;9417;16.484;102.872;2023-09-19T04:14:27;26.30;99.90
18575;DHT22;9417;16.484;102.872;2023-09-19T04:16:34;26.40;99.90
18575;DHT22;9417;16.484;102.872;2023-09-19T04:18:42;26.50;99.90
18575;DHT22;9417;16.484;102.872;2023-09-19T04:20:50;26.50;99.90
18575;DHT22;9417;16.484;102.872;2023-09-19T04:22:57;26.50;99.90
18575;DHT22;9417;16.484;102.872;2023-09-19T04:25:05;26.50;99.90
18575;DHT22;9417;16.484;102.872;2023-09-19T04:27:14;26.50;99.90
18575;DHT22;9417;16.484;102.872;2023-09-19T04:29:21;26.60;99.90
18575;DHT22;9417;16.484;102.872;2023-09-19T04:31:28;26.60;99.90
18575;DHT22;9417;16.484;102.872;2023-09-19T04:33:35;26.60;99.90
18575;DHT22;9417;16.484;102.872;2023-09-19T04:35:43;26.60;99.90
18575;DHT22;9417;16.484;102.872;2023-09-19T04:37:51;26.60;99.90
18575;DHT22;9417;16.484;102.872;2023-09-19T04:39:59;26.60;99.90
18575;DHT22;9417;16.484;102.872;2023-09-19T04:42:08;26.60;99.90
18575;DHT22;9417;16.484;102.872;2023-09-19T04:44:21;26.70;99.90
18575;DHT22;9417;16.484;102.872;2023-09-19T04:46:28;26.70;99.90
18575;DHT22;9417;16.484;102.872;2023-09-19T04:48:38;26.70;99.90
18575;DHT22;9417;16.484;102.872;2023-09-19T04:50:46;26.70;99.90
18575;DHT22;9417;16.484;102.872;2023-09-19T04:52:55;26.80;99.90
18575;DHT22;9417;16.484;102.872;2023-09-19T04:55:03;26.70;99.90
18575;DHT22;9417;16.484;102.872;2023-09-19T04:57:09;26.70;99.90
18575;DHT22;9417;16.484;102.872;2023-09-19T04:59:19;26.80;99.90
18575;DHT22;9417;16.484;102.872;2023-09-19T05:01:26;26.80;99.90
18575;DHT22;9417;16.484;102.872;2023-09-19T05:03:34;26.80;99.90
18575;DHT22;9417;16.484;102.872;2023-09-19T05:05:42;26.80;99.90
18575;DHT22;9417;16.484;102.872;2023-09-19T05:07:49;26.80;99.90
18575;DHT22;9417;16.484;102.872;2023-09-19T05:09:59;26.90;99.90
18575;DHT22;9417;16.484;102.872;2023-09-19T05:12:06;26.90;99.90
18575;DHT22;9417;16.484;102.872;2023-09-19T05:14:15;26.90;99.90
18575;DHT22;9417;16.484;102.872;2023-09-19T05:16:24;26.90;99.90
18575;DHT22;9417;16.484;102.872;2023-09-19T05:18:32;26.90;99.90
18575;DHT22;9417;16.484;102.872;2023-09-19T05:20:39;27.00;99.90
18575;DHT22;9417;16.484;102.872;2023-09-19T05:22:47;27.00;99.90
18575;DHT22;9417;16.484;102.872;2023-09-19T05:24:53;27.00;99.90
18575;DHT22;9417;16.484;102.872;2023-09-19T05:27:00;27.00;99.90
18575;DHT22;9417;16.484;102.872;2023-09-19T05:29:09;27.10;99.90
18575;DHT22;9417;16.484;102.872;2023-09-19T05:31:17;27.10;99.90
18575;DHT22;9417;16.484;102.872;2023-09-19T05:33:26;27.10;99.90
18575;DHT22;9417;16.484;102.872;2023-09-19T05:35:37;27.20;99.90
18575;DHT22;9417;16.484;102.872;2023-09-19T05:37:44;27.20;99.90
18575;DHT22;9417;16.484;102.872;2023-09-19T05:39:50;27.20;99.90
18575;DHT22;9417;16.484;102.872;2023-09-19T05:41:57;27.30;99.90
18575;DHT22;9417;16.484;102.872;2023-09-19T05:44:05;27.30;99.90
18575;DHT22;9417;16.484;102.872;2023-09-19T05:46:12;27.40;99.90
18575;DHT22;9417;16.484;102.872;2023-09-19T05:48:20;27.40;99.90
18575;DHT22;9417;16.484;102.872;2023-09-19T05:50:29;27.40;99.90
18575;DHT22;9417;16.484;102.872;2023-09-19T05:52:37;27.50;99.90
18575;DHT22;9417;16.484;102.872;2023-09-19T05:54:45;27.50;99.90
18575;DHT22;9417;16.484;102.872;2023-09-19T05:56:54;27.60;99.90
18575;DHT22;9417;16.484;102.872;2023-09-19T05:59:02;27.60;99.90
18575;DHT22;9417;16.484;102.872;2023-09-19T06:01:09;27.60;99.90
18575;DHT22;9417;16.484;102.872;2023-09-19T06:03:16;27.60;99.90
18575;DHT22;9417;16.484;102.872;2023-09-19T06:05:25;27.70;99.90
18575;DHT22;9417;16.484;102.872;2023-09-19T06:07:33;27.70;99.90
18575;DHT22;9417;16.484;102.872;2023-09-19T06:09:42;27.80;99.90
18575;DHT22;9417;16.484;102.872;2023-09-19T06:11:49;27.80;99.90
18575;DHT22;9417;16.484;102.872;2023-09-19T06:13:56;27.90;99.90
18575;DHT22;9417;16.484;102.872;2023-09-19T06:16:05;27.90;99.40
18575;DHT22;9417;16.484;102.872;2023-09-19T06:18:12;27.90;99.10
18575;DHT22;9417;16.484;102.872;2023-09-19T06:20:25;28.00;98.80
18575;DHT22;9417;16.484;102.872;2023-09-19T06:22:34;28.00;98.30
18575;DHT22;9417;16.484;102.872;2023-09-19T06:24:42;28.00;98.40
18575;DHT22;9417;16.484;102.872;2023-09-19T06:26:49;28.00;97.40
18575;DHT22;9417;16.484;102.872;2023-09-19T06:28:57;28.00;97.70
18575;DHT22;9417;16.484;102.872;2023-09-19T06:31:05;28.00;97.90
18575;DHT22;9417;16.484;102.872;2023-09-19T06:33:14;28.10;98.00
18575;DHT22;9417;16.484;102.872;2023-09-19T06:35:22;28.10;97.90
18575;DHT22;9417;16.484;102.872;2023-09-19T06:37:30;28.10;97.90
18575;DHT22;9417;16.484;102.872;2023-09-19T06:39:41;28.10;97.70
18575;DHT22;9417;16.484;102.872;2023-09-19T06:41:48;28.10;97.70
18575;DHT22;9417;16.484;102.872;2023-09-19T06:43:58;28.20;97.00
18575;DHT22;9417;16.484;102.872;2023-09-19T06:46:05;28.20;96.80
18575;DHT22;9417;16.484;102.872;2023-09-19T06:48:13;28.20;97.10
18575;DHT22;9417;16.484;102.872;2023-09-19T06:50:21;28.20;97.40
18575;DHT22;9417;16.484;102.872;2023-09-19T06:52:29;28.20;97.50
18575;DHT22;9417;16.484;102.872;2023-09-19T06:54:37;28.20;97.70
18575;DHT22;9417;16.484;102.872;2023-09-19T06:56:48;28.20;97.90
18575;DHT22;9417;16.484;102.872;2023-09-19T06:58:55;28.20;97.90
18575;DHT22;9417;16.484;102.872;2023-09-19T07:01:02;28.20;97.60
18575;DHT22;9417;16.484;102.872;2023-09-19T07:03:10;28.20;97.30
18575;DHT22;9417;16.484;102.872;2023-09-19T07:05:18;28.30;96.90
18575;DHT22;9417;16.484;102.872;2023-09-19T07:07:25;28.30;97.30
18575;DHT22;9417;16.484;102.872;2023-09-19T07:09:34;28.40;96.80
18575;DHT22;9417;16.484;102.872;2023-09-19T07:11:41;28.40;96.20
18575;DHT22;9417;16.484;102.872;2023-09-19T07:13:52;28.50;95.90
18575;DHT22;9417;16.484;102.872;2023-09-19T07:15:59;28.50;96.30
18575;DHT22;9417;16.484;102.872;2023-09-19T07:18:07;28.60;96.60
18575;DHT22;9417;16.484;102.872;2023-09-19T07:20:15;28.70;96.50
18575;DHT22;9417;16.484;102.872;2023-09-19T07:22:23;28.70;96.30
18575;DHT22;9417;16.484;102.872;2023-09-19T07:24:31;28.70;96.30
18575;DHT22;9417;16.484;102.872;2023-09-19T07:26:38;28.80;95.60
18575;DHT22;9417;16.484;102.872;2023-09-19T07:28:46;28.80;95.00
18575;DHT22;9417;16.484;102.872;2023-09-19T07:30:55;28.80;94.40
18575;DHT22;9417;16.484;102.872;2023-09-19T07:33:02;28.70;93.80
18575;DHT22;9417;16.484;102.872;2023-09-19T07:35:10;28.70;93.90
18575;DHT22;9417;16.484;102.872;2023-09-19T07:37:18;28.70;94.60
18575;DHT22;9417;16.484;102.872;2023-09-19T07:39:26;28.70;93.90
18575;DHT22;9417;16.484;102.872;2023-09-19T07:41:34;28.70;94.60
18575;DHT22;9417;16.484;102.872;2023-09-19T07:43:40;28.70;94.50
18575;DHT22;9417;16.484;102.872;2023-09-19T07:45:48;28.80;94.60
18575;DHT22;9417;16.484;102.872;2023-09-19T07:47:58;28.90;94.60
18575;DHT22;9417;16.484;102.872;2023-09-19T07:50:07;28.90;94.60
18575;DHT22;9417;16.484;102.872;2023-09-19T07:52:14;29.00;94.50
18575;DHT22;9417;16.484;102.872;2023-09-19T07:54:22;29.00;94.40
18575;DHT22;9417;16.484;102.872;2023-09-19T07:56:30;29.10;94.60
18575;DHT22;9417;16.484;102.872;2023-09-19T07:58:40;29.20;94.60
18575;DHT22;9417;16.484;102.872;2023-09-19T08:00:48;29.20;94.10
18575;DHT22;9417;16.484;102.872;2023-09-19T08:02:57;29.20;93.90
18575;DHT22;9417;16.484;102.872;2023-09-19T08:05:16;29.20;93.90
18575;DHT22;9417;16.484;102.872;2023-09-19T08:07:23;29.30;92.90
18575;DHT22;9417;16.484;102.872;2023-09-19T08:09:29;29.40;92.40
18575;DHT22;9417;16.484;102.872;2023-09-19T08:11:38;29.40;91.40
18575;DHT22;9417;16.484;102.872;2023-09-19T08:13:46;29.40;91.00
18575;DHT22;9417;16.484;102.872;2023-09-19T08:15:53;29.40;90.70
18575;DHT22;9417;16.484;102.872;2023-09-19T08:18:04;29.50;90.80
18575;DHT22;9417;16.484;102.872;2023-09-19T08:20:13;29.50;90.80
18575;DHT22;9417;16.484;102.872;2023-09-19T08:22:22;29.50;90.10
18575;DHT22;9417;16.484;102.872;2023-09-19T08:24:30;29.60;90.70
18575;DHT22;9417;16.484;102.872;2023-09-19T08:26:37;29.60;90.70
18575;DHT22;9417;16.484;102.872;2023-09-19T08:28:45;29.80;90.40
18575;DHT22;9417;16.484;102.872;2023-09-19T08:30:53;29.80;89.50
18575;DHT22;9417;16.484;102.872;2023-09-19T08:33:02;29.80;89.10
18575;DHT22;9417;16.484;102.872;2023-09-19T08:35:10;29.70;89.50
18575;DHT22;9417;16.484;102.872;2023-09-19T08:37:18;29.70;89.00
18575;DHT22;9417;16.484;102.872;2023-09-19T08:39:25;29.50;89.30
18575;DHT22;9417;16.484;102.872;2023-09-19T08:41:32;29.40;90.30
18575;DHT22;9417;16.484;102.872;2023-09-19T08:43:39;29.40;91.30
18575;DHT22;9417;16.484;102.872;2023-09-19T08:45:46;29.30;92.40
18575;DHT22;9417;16.484;102.872;2023-09-19T08:48:00;29.20;93.00
18575;DHT22;9417;16.484;102.872;2023-09-19T08:50:18;29.20;93.60
18575;DHT22;9417;16.484;102.872;2023-09-19T08:52:28;29.10;94.30
18575;DHT22;9417;16.484;102.872;2023-09-19T08:54:41;29.10;94.50
18575;DHT22;9417;16.484;102.872;2023-09-19T08:56:50;29.00;94.50
18575;DHT22;9417;16.484;102.872;2023-09-19T08:59:00;29.00;94.70
18575;DHT22;9417;16.484;102.872;2023-09-19T09:01:10;29.00;94.90
18575;DHT22;9417;16.484;102.872;2023-09-19T09:03:19;29.00;95.10
18575;DHT22;9417;16.484;102.872;2023-09-19T09:05:29;29.00;95.30
18575;DHT22;9417;16.484;102.872;2023-09-19T09:07:37;29.00;95.40
18575;DHT22;9417;16.484;102.872;2023-09-19T09:09:46;29.00;95.70
18575;DHT22;9417;16.484;102.872;2023-09-19T09:11:53;29.00;95.90
18575;DHT22;9417;16.484;102.872;2023-09-19T09:14:01;28.90;96.20
18575;DHT22;9417;16.484;102.872;2023-09-19T09:16:09;28.90;96.50
18575;DHT22;9417;16.484;102.872;2023-09-19T09:18:17;28.90;96.70
18575;DHT22;9417;16.484;102.872;2023-09-19T09:20:24;28.90;96.70
18575;DHT22;9417;16.484;102.872;2023-09-19T09:22:34;28.90;96.90
18575;DHT22;9417;16.484;102.872;2023-09-19T09:24:52;28.80;97.10
18575;DHT22;9417;16.484;102.872;2023-09-19T09:27:05;28.80;96.70
18575;DHT22;9417;16.484;102.872;2023-09-19T09:29:13;28.80;96.90
18575;DHT22;9417;16.484;102.872;2023-09-19T09:31:24;28.70;97.30
18575;DHT22;9417;16.484;102.872;2023-09-19T09:33:32;28.70;97.70
18575;DHT22;9417;16.484;102.872;2023-09-19T09:35:51;28.70;97.90
18575;DHT22;9417;16.484;102.872;2023-09-19T09:38:04;28.70;98.10
18575;DHT22;9417;16.484;102.872;2023-09-19T09:40:14;28.70;98.30
18575;DHT22;9417;16.484;102.872;2023-09-19T09:42:41;28.70;98.50
18575;DHT22;9417;16.484;102.872;2023-09-19T09:45:16;28.70;98.80
18575;DHT22;9417;16.484;102.872;2023-09-19T09:47:42;28.70;98.70
18575;DHT22;9417;16.484;102.872;2023-09-19T09:49:55;28.70;98.90
18575;DHT22;9417;16.484;102.872;2023-09-19T09:52:12;28.70;99.10
18575;DHT22;9417;16.484;102.872;2023-09-19T09:54:24;28.70;99.30
18575;DHT22;9417;16.484;102.872;2023-09-19T09:56:32;28.70;99.40
18575;DHT22;9417;16.484;102.872;2023-09-19T09:58:50;28.60;98.90
18575;DHT22;9417;16.484;102.872;2023-09-19T10:00:59;28.70;98.70
18575;DHT22;9417;16.484;102.872;2023-09-19T10:03:20;28.60;98.70
18575;DHT22;9417;16.484;102.872;2023-09-19T10:05:27;28.60;98.60
18575;DHT22;9417;16.484;102.872;2023-09-19T10:07:35;28.60;98.60
18575;DHT22;9417;16.484;102.872;2023-09-19T10:09:50;28.60;98.60
18575;DHT22;9417;16.484;102.872;2023-09-19T10:12:05;28.60;98.60
18575;DHT22;9417;16.484;102.872;2023-09-19T10:14:16;28.60;98.60
18575;DHT22;9417;16.484;102.872;2023-09-19T10:16:25;28.60;98.80
18575;DHT22;9417;16.484;102.872;2023-09-19T10:18:35;28.60;98.90
18575;DHT22;9417;16.484;102.872;2023-09-19T10:20:45;28.60;98.90
18575;DHT22;9417;16.484;102.872;2023-09-19T10:22:51;28.60;99.00
18575;DHT22;9417;16.484;102.872;2023-09-19T10:25:05;28.60;99.10
18575;DHT22;9417;16.484;102.872;2023-09-19T10:27:14;28.60;99.20
18575;DHT22;9417;16.484;102.872;2023-09-19T10:29:25;28.60;99.20
18575;DHT22;9417;16.484;102.872;2023-09-19T10:31:37;28.60;99.00
18575;DHT22;9417;16.484;102.872;2023-09-19T10:33:52;28.60;98.90
18575;DHT22;9417;16.484;102.872;2023-09-19T10:36:00;28.50;99.00
18575;DHT22;9417;16.484;102.872;2023-09-19T10:38:09;28.50;99.10
18575;DHT22;9417;16.484;102.872;2023-09-19T10:40:20;28.50;99.30
18575;DHT22;9417;16.484;102.872;2023-09-19T10:42:28;28.50;99.30
18575;DHT22;9417;16.484;102.872;2023-09-19T10:44:38;28.50;99.40
18575;DHT22;9417;16.484;102.872;2023-09-19T10:46:48;28.50;99.80
18575;DHT22;9417;16.484;102.872;2023-09-19T10:48:59;28.40;99.90
18575;DHT22;9417;16.484;102.872;2023-09-19T10:51:09;28.40;99.90
18575;DHT22;9417;16.484;102.872;2023-09-19T10:53:18;28.30;99.90
18575;DHT22;9417;16.484;102.872;2023-09-19T10:55:26;28.30;99.90
18575;DHT22;9417;16.484;102.872;2023-09-19T10:57:35;28.30;99.90
18575;DHT22;9417;16.484;102.872;2023-09-19T11:00:02;28.20;99.90
18575;DHT22;9417;16.484;102.872;2023-09-19T11:02:26;28.20;99.90
18575;DHT22;9417;16.484;102.872;2023-09-19T11:04:34;28.10;99.90
18575;DHT22;9417;16.484;102.872;2023-09-19T11:06:43;28.10;99.90
18575;DHT22;9417;16.484;102.872;2023-09-19T11:09:07;28.10;99.90
18575;DHT22;9417;16.484;102.872;2023-09-19T11:11:44;28.10;99.90
18575;DHT22;9417;16.484;102.872;2023-09-19T11:14:15;28.00;99.90
18575;DHT22;9417;16.484;102.872;2023-09-19T11:16:21;28.00;99.90
18575;DHT22;9417;16.484;102.872;2023-09-19T11:18:53;27.90;99.90
18575;DHT22;9417;16.484;102.872;2023-09-19T11:23:40;27.90;99.90
18575;DHT22;9417;16.484;102.872;2023-09-19T11:25:49;27.90;99.90
18575;DHT22;9417;16.484;102.872;2023-09-19T11:28:31;27.90;99.90
18575;DHT22;9417;16.484;102.872;2023-09-19T11:30:40;27.90;99.90
18575;DHT22;9417;16.484;102.872;2023-09-19T11:33:17;27.90;99.90
18575;DHT22;9417;16.484;102.872;2023-09-19T11:35:58;27.80;99.90
18575;DHT22;9417;16.484;102.872;2023-09-19T11:38:06;27.80;99.90
18575;DHT22;9417;16.484;102.872;2023-09-19T11:40:15;27.70;99.90
18575;DHT22;9417;16.484;102.872;2023-09-19T11:42:44;27.70;99.90
18575;DHT22;9417;16.484;102.872;2023-09-19T11:45:00;27.70;99.90
18575;DHT22;9417;16.484;102.872;2023-09-19T11:47:09;27.70;99.90
18575;DHT22;9417;16.484;102.872;2023-09-19T11:49:18;27.70;99.90
18575;DHT22;9417;16.484;102.872;2023-09-19T11:51:26;27.70;99.90
18575;DHT22;9417;16.484;102.872;2023-09-19T11:53:34;27.70;99.90
18575;DHT22;9417;16.484;102.872;2023-09-19T11:55:43;27.70;99.90
18575;DHT22;9417;16.484;102.872;2023-09-19T11:57:52;27.60;99.90
18575;DHT22;9417;16.484;102.872;2023-09-19T12:00:03;27.60;99.90
18575;DHT22;9417;16.484;102.872;2023-09-19T12:02:26;27.50;99.90
18575;DHT22;9417;16.484;102.872;2023-09-19T12:04:35;27.50;99.90
18575;DHT22;9417;16.484;102.872;2023-09-19T12:06:44;27.60;99.90
18575;DHT22;9417;16.484;102.872;2023-09-19T12:09:03;27.60;99.90
18575;DHT22;9417;16.484;102.872;2023-09-19T12:11:16;27.60;99.90
18575;DHT22;9417;16.484;102.872;2023-09-19T12:13:25;27.60;99.90
18575;DHT22;9417;16.484;102.872;2023-09-19T12:15:36;27.60;99.90
18575;DHT22;9417;16.484;102.872;2023-09-19T12:17:44;27.60;99.90
18575;DHT22;9417;16.484;102.872;2023-09-19T12:19:55;27.60;99.90
18575;DHT22;9417;16.484;102.872;2023-09-19T12:22:03;27.60;99.90
18575;DHT22;9417;16.484;102.872;2023-09-19T12:24:13;27.60;99.90
18575;DHT22;9417;16.484;102.872;2023-09-19T12:26:24;27.60;99.90
18575;DHT22;9417;16.484;102.872;2023-09-19T12:28:31;27.60;99.90
18575;DHT22;9417;16.484;102.872;2023-09-19T12:30:50;27.60;99.90
18575;DHT22;9417;16.484;102.872;2023-09-19T12:33:00;27.60;99.90
18575;DHT22;9417;16.484;102.872;2023-09-19T12:35:08;27.60;99.90
18575;DHT22;9417;16.484;102.872;2023-09-19T12:37:16;27.60;99.90
18575;DHT22;9417;16.484;102.872;2023-09-19T12:39:27;27.60;99.90
18575;DHT22;9417;16.484;102.872;2023-09-19T12:41:35;27.60;99.90
18575;DHT22;9417;16.484;102.872;2023-09-19T12:43:44;27.60;99.90
18575;DHT22;9417;16.484;102.872;2023-09-19T12:45:53;27.60;99.90
18575;DHT22;9417;16.484;102.872;2023-09-19T12:48:18;27.60;99.90
18575;DHT22;9417;16.484;102.872;2023-09-19T12:50:27;27.50;99.90
18575;DHT22;9417;16.484;102.872;2023-09-19T12:52:37;27.50;99.90
18575;DHT22;9417;16.484;102.872;2023-09-19T12:54:45;27.50;99.90
18575;DHT22;9417;16.484;102.872;2023-09-19T12:56:56;27.50;99.90
18575;DHT22;9417;16.484;102.872;2023-09-19T12:59:04;27.50;99.90
18575;DHT22;9417;16.484;102.872;2023-09-19T13:01:17;27.50;99.90
18575;DHT22;9417;16.484;102.872;2023-09-19T13:03:27;27.50;99.90
18575;DHT22;9417;16.484;102.872;2023-09-19T13:05:54;27.50;99.90
18575;DHT22;9417;16.484;102.872;2023-09-19T13:08:18;27.40;99.90
18575;DHT22;9417;16.484;102.872;2023-09-19T13:10:26;27.40;99.90
18575;DHT22;9417;16.484;102.872;2023-09-19T13:12:38;27.40;99.90
18575;DHT22;9417;16.484;102.872;2023-09-19T13:14:47;27.40;99.90
18575;DHT22;9417;16.484;102.872;2023-09-19T13:17:00;27.40;99.90
18575;DHT22;9417;16.484;102.872;2023-09-19T13:19:12;27.40;99.90
18575;DHT22;9417;16.484;102.872;2023-09-19T13:21:28;27.40;99.90
18575;DHT22;9417;16.484;102.872;2023-09-19T13:23:42;27.40;99.90
18575;DHT22;9417;16.484;102.872;2023-09-19T13:25:50;27.40;99.90
18575;DHT22;9417;16.484;102.872;2023-09-19T13:27:58;27.40;99.90
18575;DHT22;9417;16.484;102.872;2023-09-19T13:30:10;27.40;99.90
18575;DHT22;9417;16.484;102.872;2023-09-19T13:32:18;27.30;99.90